Time;durP1;ratioP1;P1;durP2;ratioP2;P2;SDS_P1;SDS_P2;PMS_P1;PMS_P2;Temp;Humidity;BMP_temperature;BMP_pressure;BME280_temperature;BME280_humidity;BME280_pressure;Samples;Min_cycle;Max_cycle;Signal;HPM_P1;HPM_P2
2023/10/28 00:01:30;;;;;;;6.10;1.83;;;;;;;19.24;52.32;93976.28;5045585;28;20075;-81
2023/10/28 00:03:57;;;;;;;7.88;1.70;;;;;;;19.25;52.10;93975.00;5011471;28;20422;-81
2023/10/28 00:06:22;;;;;;;6.38;1.60;;;;;;;19.23;52.13;93974.78;5026832;28;20101;-81
2023/10/28 00:08:49;;;;;;;4.75;1.20;;;;;;;19.24;52.46;93976.28;5028267;28;20488;-81
2023/10/28 00:11:16;;;;;;;9.27;1.80;;;;;;;19.22;52.40;93979.59;5009611;28;20099;-82
2023/10/28 00:13:41;;;;;;;4.68;1.70;;;;;;;19.18;52.51;93981.13;5011648;28;20025;-82
2023/10/28 00:16:08;;;;;;;2.47;1.25;;;;;;;19.15;52.42;93985.69;5010211;28;20412;-81
2023/10/28 00:18:34;;;;;;;2.88;1.67;;;;;;;19.16;52.71;93984.44;5027590;28;20029;-82
2023/10/28 00:21:00;;;;;;;7.95;1.80;;;;;;;19.21;52.78;93992.00;5027632;28;20667;-82
2023/10/28 00:23:25;;;;;;;3.17;1.65;;;;;;;19.03;53.03;93981.47;5045141;28;20052;-81
2023/10/28 00:25:50;;;;;;;4.38;1.50;;;;;;;19.07;53.30;93981.94;5027962;28;20400;-82
2023/10/28 00:28:16;;;;;;;6.95;1.88;;;;;;;19.07;52.98;93982.72;5026452;28;20021;-80
2023/10/28 00:30:41;;;;;;;5.13;1.77;;;;;;;19.03;52.99;93985.00;5027960;28;20120;-79
2023/10/28 00:33:07;;;;;;;6.18;1.98;;;;;;;18.97;53.03;93981.50;5026762;28;20439;-82
2023/10/28 00:35:33;;;;;;;4.28;1.90;;;;;;;18.93;53.54;93983.81;5011059;28;20511;-82
2023/10/28 00:37:58;;;;;;;8.75;2.05;;;;;;;18.86;53.54;93984.34;5011091;28;20025;-81
2023/10/28 00:40:29;;;;;;;5.30;1.70;;;;;;;18.82;53.71;93990.19;5027381;28;20021;-81
2023/10/28 00:42:54;;;;;;;4.18;1.70;;;;;;;18.77;53.85;93998.56;5011317;28;20033;-82
2023/10/28 00:45:20;;;;;;;7.18;2.17;;;;;;;18.75;54.15;93995.53;5044596;28;20027;-82
2023/10/28 00:47:46;;;;;;;10.02;2.50;;;;;;;18.76;53.63;93994.28;5031772;28;20351;-82
2023/10/28 00:50:16;;;;;;;5.13;1.73;;;;;;;18.70;54.08;93997.09;5013768;28;20068;-81
2023/10/28 00:52:46;;;;;;;3.28;1.60;;;;;;;18.69;53.84;94001.13;5015065;28;20029;-81
2023/10/28 00:55:13;;;;;;;7.55;1.60;;;;;;;18.64;54.16;93993.53;5030417;28;20032;-81
2023/10/28 00:57:39;;;;;;;4.80;1.20;;;;;;;18.71;53.70;93995.81;5030030;28;20485;-80
2023/10/28 01:00:08;;;;;;;4.32;1.20;;;;;;;18.72;53.63;93993.78;5014407;28;20112;-80
2023/10/28 01:02:39;;;;;;;4.97;1.70;;;;;;;18.64;54.10;94001.09;5013604;28;20472;-81
2023/10/28 01:05:05;;;;;;;3.80;1.15;;;;;;;18.67;54.18;94002.88;5014913;28;20052;-79
2023/10/28 01:07:32;;;;;;;3.53;1.33;;;;;;;18.71;54.01;93993.03;5029600;28;20059;-79
2023/10/28 01:09:57;;;;;;;4.43;1.42;;;;;;;18.64;54.12;94001.88;5031025;28;20032;-80
2023/10/28 01:12:23;;;;;;;5.35;1.50;;;;;;;18.66;54.26;93993.03;5013002;28;20032;-80
2023/10/28 01:14:50;;;;;;;9.02;1.60;;;;;;;18.67;53.85;93994.53;5031041;28;20422;-80
2023/10/28 01:17:16;;;;;;;4.28;1.30;;;;;;;18.73;53.75;94004.41;5030697;28;20025;-81
2023/10/28 01:19:42;;;;;;;7.65;1.60;;;;;;;18.69;54.30;94006.69;5029808;28;20318;-81
2023/10/28 01:22:08;;;;;;;3.75;1.30;;;;;;;18.78;54.07;94005.66;5049150;28;20025;-80
2023/10/28 01:24:35;;;;;;;4.75;1.23;;;;;;;18.74;53.70;93994.78;5047101;28;20403;-81
2023/10/28 01:27:01;;;;;;;5.93;1.80;;;;;;;18.75;54.07;94004.66;5049053;28;20028;-80
2023/10/28 01:29:28;;;;;;;3.10;1.20;;;;;;;18.72;54.40;94002.88;5047720;28;20029;-80
2023/10/28 01:31:54;;;;;;;5.32;2.22;;;;;;;18.64;54.37;93998.31;5030681;28;20111;-80
2023/10/28 01:34:21;;;;;;;5.70;1.58;;;;;;;18.70;54.04;93996.31;5030197;28;20095;-80
2023/10/28 01:36:47;;;;;;;3.95;1.00;;;;;;;18.70;54.35;93987.97;5036895;28;20049;-82
2023/10/28 01:39:13;;;;;;;4.03;1.20;;;;;;;18.67;54.12;93980.59;5022566;28;20040;-79
2023/10/28 01:41:38;;;;;;;5.93;1.30;;;;;;;18.73;54.08;93996.03;5017464;28;20475;-80
2023/10/28 01:44:04;;;;;;;3.17;1.45;;;;;;;18.71;54.28;93995.06;5015516;28;20028;-80
2023/10/28 01:46:30;;;;;;;4.15;1.20;;;;;;;18.73;53.80;93986.94;5013051;28;20040;-80
2023/10/28 01:48:55;;;;;;;4.00;1.40;;;;;;;18.80;53.70;93992.72;5030495;28;20044;-80
2023/10/28 01:51:21;;;;;;;3.40;0.98;;;;;;;18.69;54.01;93992.75;5012669;28;20036;-81
2023/10/28 01:53:47;;;;;;;3.00;1.10;;;;;;;18.68;54.20;94005.16;5013301;28;20029;-81
2023/10/28 01:56:13;;;;;;;3.97;1.10;;;;;;;18.69;54.15;93989.97;5029937;28;20052;-80
2023/10/28 01:58:38;;;;;;;6.88;1.50;;;;;;;18.73;53.96;94004.41;5027617;28;20502;-80
2023/10/28 02:01:04;;;;;;;3.10;0.85;;;;;;;18.72;54.09;93997.31;5030419;28;20359;-81
2023/10/28 02:03:30;;;;;;;3.72;1.08;;;;;;;18.60;54.31;94003.41;5028820;28;20043;-80
2023/10/28 02:05:56;;;;;;;4.13;1.20;;;;;;;18.63;54.17;94005.16;5048128;28;20459;-80
2023/10/28 02:08:21;;;;;;;2.35;1.02;;;;;;;18.63;54.04;94021.88;5028777;28;20102;-81
2023/10/28 02:10:47;;;;;;;2.85;1.02;;;;;;;18.65;54.06;94008.22;5012978;28;20061;-80
2023/10/28 02:13:13;;;;;;;3.42;1.30;;;;;;;18.71;53.95;94011.75;5012775;28;20128;-81
2023/10/28 02:15:38;;;;;;;1.70;1.00;;;;;;;18.73;53.57;94021.09;5029242;28;20112;-80
2023/10/28 02:18:04;;;;;;;4.05;1.13;;;;;;;18.75;53.49;94017.78;5029809;28;20464;-81
2023/10/28 02:20:30;;;;;;;2.85;1.08;;;;;;;18.73;53.54;94018.31;5012079;28;20591;-80
2023/10/28 02:22:55;;;;;;;1.83;0.90;;;;;;;18.72;53.23;94014.03;5013675;28;20025;-81
2023/10/28 02:25:23;;;;;;;4.38;1.13;;;;;;;18.78;53.17;94019.56;5028918;28;20029;-80
2023/10/28 02:27:49;;;;;;;5.43;1.20;;;;;;;18.80;52.57;94020.56;5013667;28;20025;-81
2023/10/28 02:30:14;;;;;;;5.43;1.20;;;;;;;18.80;52.80;94022.59;5011882;28;20031;-80
2023/10/28 02:32:40;;;;;;;12.10;5.75;;;;;;;18.80;52.80;94028.91;5012784;28;20021;-80
2023/10/28 02:35:06;;;;;;;8.52;3.38;;;;;;;18.75;52.42;94020.56;5012453;28;20080;-80
2023/10/28 02:37:31;;;;;;;3.83;1.20;;;;;;;18.80;52.26;94019.81;5011764;28;20218;-80
2023/10/28 02:39:57;;;;;;;4.25;1.00;;;;;;;18.76;52.39;94014.53;5029303;28;20029;-81
2023/10/28 02:42:22;;;;;;;8.30;1.73;;;;;;;18.81;52.17;94021.34;5027924;28;20036;-80
2023/10/28 02:44:49;;;;;;;2.97;1.00;;;;;;;18.75;52.36;94009.44;5012635;28;20071;-80
2023/10/28 02:47:15;;;;;;;2.83;1.02;;;;;;;18.77;52.18;94018.81;5027940;28;20037;-80
2023/10/28 02:49:41;;;;;;;4.40;1.30;;;;;;;18.71;52.27;94018.09;5029070;28;20017;-79
2023/10/28 02:52:06;;;;;;;4.25;1.13;;;;;;;18.76;52.57;94019.34;5011699;28;20048;-80
2023/10/28 02:54:32;;;;;;;4.32;1.05;;;;;;;18.71;52.47;94022.88;5012040;28;20052;-80
2023/10/28 02:56:58;;;;;;;2.13;1.10;;;;;;;18.71;52.42;94018.09;5012374;28;20108;-80
2023/10/28 02:59:23;;;;;;;6.57;1.48;;;;;;;18.70;52.60;94016.56;5027951;28;20059;-80
2023/10/28 03:01:48;;;;;;;4.30;1.02;;;;;;;18.69;52.85;94020.59;5028941;28;20017;-80
2023/10/28 03:04:14;;;;;;;2.97;0.90;;;;;;;18.71;52.52;94015.28;5010979;28;20422;-81
2023/10/28 03:06:39;;;;;;;6.30;1.10;;;;;;;18.79;52.40;94019.03;5029090;28;20086;-80
2023/10/28 03:09:04;;;;;;;3.10;1.10;;;;;;;18.77;52.73;94021.59;5027346;28;20021;-80
2023/10/28 03:11:30;;;;;;;5.10;1.17;;;;;;;18.72;52.57;94008.44;5028411;28;20021;-80
2023/10/28 03:13:55;;;;;;;2.78;1.00;;;;;;;18.68;52.86;94019.09;5028116;28;20427;-81
2023/10/28 03:16:21;;;;;;;4.65;1.10;;;;;;;18.68;52.84;94021.13;5011367;28;20120;-79
2023/10/28 03:18:46;;;;;;;3.38;1.02;;;;;;;18.57;53.14;94021.88;5012087;28;20029;-81
2023/10/28 03:21:12;;;;;;;3.63;1.30;;;;;;;18.60;53.14;94029.22;5027109;28;20064;-80
2023/10/28 03:23:37;;;;;;;3.65;1.23;;;;;;;18.47;53.59;94045.72;5028832;28;20664;-81
2023/10/28 03:26:06;;;;;;;2.60;1.08;;;;;;;18.52;53.44;94050.47;5027081;28;20029;-81
2023/10/28 03:28:32;;;;;;;6.55;2.08;;;;;;;18.47;53.83;94040.91;5028747;28;20032;-80
2023/10/28 03:30:57;;;;;;;6.25;1.90;;;;;;;18.37;54.60;94050.03;5027222;28;20106;-80
2023/10/28 03:33:23;;;;;;;6.30;2.05;;;;;;;18.12;55.15;94049.03;5028122;28;20039;-80
2023/10/28 03:35:48;;;;;;;8.50;2.15;;;;;;;18.03;55.52;94053.63;5011471;28;20067;-80
2023/10/28 03:38:14;;;;;;;3.47;1.88;;;;;;;17.99;55.75;94063.47;5027437;28;20419;-80
2023/10/28 03:40:39;;;;;;;6.88;2.40;;;;;;;17.84;56.15;94057.44;5028368;28;20500;-79
2023/10/28 03:43:05;;;;;;;4.90;1.92;;;;;;;17.89;55.84;94060.22;5010070;28;20112;-80
2023/10/28 03:45:31;;;;;;;2.40;1.58;;;;;;;17.83;56.08;94061.44;5012039;28;20446;-82
2023/10/28 03:47:56;;;;;;;3.65;2.00;;;;;;;17.83;55.88;94058.66;5010452;28;20017;-82
2023/10/28 03:50:22;;;;;;;5.65;2.25;;;;;;;17.76;56.24;94066.25;5027904;28;20101;-82
2023/10/28 03:52:47;;;;;;;5.28;2.10;;;;;;;17.73;56.19;94066.53;5027601;28;20563;-81
2023/10/28 03:55:13;;;;;;;4.13;1.95;;;;;;;17.71;56.38;94066.97;5011029;28;20037;-83
2023/10/28 03:57:38;;;;;;;6.38;2.05;;;;;;;17.65;56.27;94051.56;5011486;28;20032;-82
2023/10/28 04:00:07;;;;;;;6.15;2.20;;;;;;;17.68;56.67;94075.56;5010167;28;20690;-81
2023/10/28 04:02:33;;;;;;;4.15;1.98;;;;;;;17.65;56.21;94077.31;5028897;28;20067;-81
2023/10/28 04:04:58;;;;;;;5.63;1.80;;;;;;;17.69;56.24;94075.06;5044736;28;20111;-82
2023/10/28 04:07:24;;;;;;;5.32;2.13;;;;;;;17.59;56.77;94071.00;5011565;28;20434;-81
2023/10/28 04:09:49;;;;;;;6.55;2.10;;;;;;;17.49;56.56;94069.72;5010801;28;20033;-81
2023/10/28 04:12:15;;;;;;;7.55;2.58;;;;;;;17.50;57.16;94085.91;5011175;28;20078;-82
2023/10/28 04:14:41;;;;;;;5.78;2.25;;;;;;;17.53;56.83;94089.69;5028812;28;20608;-81
2023/10/28 04:17:06;;;;;;;5.05;2.10;;;;;;;17.51;57.07;94081.13;5010847;28;20112;-81
2023/10/28 04:19:32;;;;;;;4.30;2.17;;;;;;;17.36;57.28;94086.13;5012135;28;20472;-81
2023/10/28 04:21:57;;;;;;;6.63;2.80;;;;;;;17.29;57.65;94094.94;5013343;28;20495;-82
2023/10/28 04:24:25;;;;;;;7.15;3.00;;;;;;;17.24;57.98;94093.66;5032135;28;20815;-81
2023/10/28 04:26:51;;;;;;;6.57;3.10;;;;;;;17.07;58.64;94096.41;5031412;28;20448;-81
2023/10/28 04:29:17;;;;;;;5.47;2.50;;;;;;;17.01;58.96;94103.19;5014830;28;20056;-81
2023/10/28 04:31:42;;;;;;;7.00;2.70;;;;;;;16.97;58.92;94098.66;5014808;28;20087;-81
2023/10/28 04:34:07;;;;;;;5.75;2.88;;;;;;;16.81;59.25;94095.78;5014502;28;20025;-80
2023/10/28 04:36:33;;;;;;;7.05;2.80;;;;;;;16.82;59.54;94109.16;5031566;28;20084;-80
2023/10/28 04:38:58;;;;;;;6.28;3.60;;;;;;;16.78;59.62;94113.44;5014034;28;20021;-81
2023/10/28 04:41:24;;;;;;;8.63;3.33;;;;;;;16.78;59.54;94111.41;5015080;28;20416;-81
2023/10/28 04:43:49;;;;;;;6.75;2.47;;;;;;;16.79;59.68;94104.59;5013966;28;20483;-81
2023/10/28 04:46:15;;;;;;;4.47;2.88;;;;;;;16.90;59.12;94120.56;5031576;28;20021;-82
2023/10/28 04:48:42;;;;;;;5.95;2.67;;;;;;;16.84;59.47;94117.00;5030770;28;20037;-82
2023/10/28 04:51:08;;;;;;;6.03;2.47;;;;;;;16.78;59.35;94105.09;5017647;28;20037;-82
2023/10/28 04:53:33;;;;;;;6.95;2.03;;;;;;;16.70;59.29;94107.56;5005888;28;20484;-81
2023/10/28 04:56:00;;;;;;;5.28;2.45;;;;;;;16.73;59.70;94117.69;5001660;28;20026;-81
2023/10/28 04:58:27;;;;;;;4.80;2.53;;;;;;;16.70;59.98;94119.47;4996321;28;20033;-82
2023/10/28 05:00:53;;;;;;;6.53;3.00;;;;;;;16.70;60.08;94119.47;4994725;28;20037;-83
2023/10/28 05:03:18;;;;;;;6.75;3.30;;;;;;;16.67;59.95;94120.41;5019193;28;20116;-82
2023/10/28 05:05:46;;;;;;;6.68;3.05;;;;;;;16.76;59.99;94127.81;5014018;28;20112;-81
2023/10/28 05:08:11;;;;;;;4.97;3.00;;;;;;;16.71;59.75;94123.00;5030900;28;20110;-81
2023/10/28 05:10:37;;;;;;;7.28;2.75;;;;;;;16.71;60.03;94131.31;5030498;28;20079;-81
2023/10/28 05:13:03;;;;;;;6.75;3.35;;;;;;;16.69;60.19;94131.78;5048381;28;20041;-81
2023/10/28 05:15:29;;;;;;;6.00;3.13;;;;;;;16.70;59.88;94140.88;5048863;28;20033;-81
2023/10/28 05:17:54;;;;;;;8.32;3.22;;;;;;;16.67;60.01;94137.06;5029699;28;20025;-80
2023/10/28 05:20:21;;;;;;;8.15;3.45;;;;;;;16.64;60.22;94153.94;5014308;28;20100;-81
2023/10/28 05:22:46;;;;;;;7.03;3.63;;;;;;;16.65;60.09;94161.03;5013206;28;20025;-80
2023/10/28 05:25:12;;;;;;;6.70;3.15;;;;;;;16.60;59.94;94154.16;5014077;28;20083;-81
2023/10/28 05:27:38;;;;;;;7.75;3.33;;;;;;;16.60;60.05;94165.28;5029931;28;20095;-79
2023/10/28 05:30:03;;;;;;;5.53;3.10;;;;;;;16.61;60.03;94166.78;5030512;28;20033;-78
2023/10/28 05:32:32;;;;;;;7.25;3.50;;;;;;;16.56;60.32;94178.59;5012765;28;20102;-77
2023/10/28 05:34:57;;;;;;;7.10;3.60;;;;;;;16.58;60.23;94178.13;5029499;28;20033;-79
2023/10/28 05:37:23;;;;;;;6.40;3.60;;;;;;;16.57;60.28;94182.13;5030797;28;20094;-78
2023/10/28 05:39:50;;;;;;;7.75;3.90;;;;;;;16.57;60.42;94190.47;5012802;28;20440;-80
2023/10/28 05:42:16;;;;;;;11.25;4.32;;;;;;;16.61;60.05;94188.97;5030901;28;20068;-80
2023/10/28 05:44:42;;;;;;;10.18;4.28;;;;;;;16.56;60.20;94191.72;5012874;28;20476;-79
2023/10/28 05:47:07;;;;;;;8.00;3.92;;;;;;;16.59;60.23;94197.06;5013746;28;20115;-78
2023/10/28 05:49:33;;;;;;;8.57;4.57;;;;;;;16.56;60.05;94191.72;5012860;28;20679;-77
2023/10/28 05:51:59;;;;;;;8.07;3.92;;;;;;;16.55;60.32;94202.06;5029366;28;20035;-80
2023/10/28 05:54:25;;;;;;;6.90;3.90;;;;;;;16.66;60.05;94206.94;5029824;28;20029;-79
2023/10/28 05:56:50;;;;;;;8.32;4.10;;;;;;;16.60;60.35;94218.00;5029320;28;20023;-78
2023/10/28 05:59:16;;;;;;;8.88;4.28;;;;;;;16.60;60.09;94212.44;5013887;28;20388;-77
2023/10/28 06:01:41;;;;;;;8.38;4.25;;;;;;;16.63;59.96;94219.78;5012073;28;20040;-78
2023/10/28 06:04:07;;;;;;;7.90;4.00;;;;;;;16.71;60.03;94226.44;5014221;28;20044;-79
2023/10/28 06:06:32;;;;;;;7.45;3.92;;;;;;;16.73;59.79;94229.47;5029083;28;20025;-79
2023/10/28 06:08:58;;;;;;;7.78;3.92;;;;;;;16.81;59.63;94215.16;5013186;28;20087;-79
2023/10/28 06:11:23;;;;;;;10.20;4.38;;;;;;;16.88;59.57;94220.22;5029344;28;20053;-79
2023/10/28 06:13:49;;;;;;;6.20;4.10;;;;;;;16.91;59.50;94222.00;5028908;28;20108;-80
2023/10/28 06:16:15;;;;;;;6.57;4.05;;;;;;;16.97;59.45;94225.56;5030212;28;20027;-79
2023/10/28 06:18:40;;;;;;;8.80;4.15;;;;;;;17.03;59.28;94234.69;5028232;28;20086;-79
2023/10/28 06:21:06;;;;;;;8.43;4.90;;;;;;;17.12;58.79;94237.28;5013804;28;20060;-80
2023/10/28 06:23:32;;;;;;;8.80;4.60;;;;;;;17.24;58.74;94244.41;5028446;28;20079;-80
2023/10/28 06:25:58;;;;;;;7.43;4.50;;;;;;;17.22;58.63;94244.16;5013210;28;20040;-86
2023/10/28 06:28:24;;;;;;;9.07;5.10;;;;;;;17.35;58.52;94262.41;5046362;28;20495;-78
2023/10/28 06:30:50;;;;;;;9.70;5.20;;;;;;;17.40;58.13;94259.66;5028950;28;20029;-79
2023/10/28 06:33:16;;;;;;;13.10;4.97;;;;;;;17.50;57.88;94265.75;5047608;28;20167;-81
2023/10/28 06:35:41;;;;;;;8.63;5.03;;;;;;;17.55;57.54;94267.03;5046184;28;20114;-82
2023/10/28 06:38:08;;;;;;;10.52;5.60;;;;;;;17.68;57.22;94279.22;5012943;28;20025;-81
2023/10/28 06:40:37;;;;;;;9.88;4.80;;;;;;;17.68;57.27;94265.34;5011628;28;20029;-81
2023/10/28 06:43:02;;;;;;;12.10;5.05;;;;;;;17.72;57.07;94271.44;5029208;28;20036;-79
2023/10/28 06:45:28;;;;;;;9.55;4.90;;;;;;;17.77;57.01;94272.72;5011432;28;20029;-75
2023/10/28 06:47:53;;;;;;;8.18;4.20;;;;;;;17.90;56.82;94283.38;5046716;28;20029;-79
2023/10/28 06:50:21;;;;;;;9.82;4.32;;;;;;;18.01;56.37;94288.97;5012704;28;20029;-78
2023/10/28 06:52:48;;;;;;;8.63;4.50;;;;;;;18.13;56.19;94301.66;5014343;28;20030;-76
2023/10/28 06:55:14;;;;;;;9.63;4.65;;;;;;;18.24;56.18;94296.13;5009153;28;20104;-77
2023/10/28 06:57:41;;;;;;;12.68;4.70;;;;;;;18.29;55.62;94302.94;5007212;28;20034;-77
2023/10/28 07:00:12;;;;;;;8.05;4.53;;;;;;;18.39;55.43;94298.66;5009428;28;20021;-77
2023/10/28 07:02:37;;;;;;;7.68;3.92;;;;;;;18.49;55.29;94302.75;5025782;28;20037;-77
2023/10/28 07:05:03;;;;;;;8.73;4.45;;;;;;;18.58;55.28;94304.53;5008954;28;20500;-75
2023/10/28 07:07:29;;;;;;;7.40;4.10;;;;;;;18.72;54.61;94308.34;5008156;28;20021;-74
2023/10/28 07:09:54;;;;;;;7.32;4.00;;;;;;;18.78;54.83;94307.09;5008533;28;20135;-74
2023/10/28 07:12:20;;;;;;;8.45;4.07;;;;;;;18.91;54.50;94316.97;5026522;28;20025;-73
2023/10/28 07:14:47;;;;;;;8.65;4.32;;;;;;;19.05;53.92;94329.88;5007098;28;20049;-75
2023/10/28 07:17:12;;;;;;;6.40;4.60;;;;;;;19.13;53.85;94330.88;5009378;28;20033;-75
2023/10/28 07:19:38;;;;;;;15.68;4.90;;;;;;;19.28;53.23;94334.16;5007376;28;20030;-76
2023/10/28 07:22:03;;;;;;;7.70;4.30;;;;;;;19.34;53.16;94334.91;4992308;28;20035;-76
2023/10/28 07:24:29;;;;;;;8.45;3.90;;;;;;;19.42;52.81;94335.16;5007736;28;20156;-75
2023/10/28 07:26:54;;;;;;;11.30;4.45;;;;;;;19.55;52.60;94329.03;5025811;28;20108;-75
2023/10/28 07:29:20;;;;;;;10.40;4.28;;;;;;;19.71;51.96;94333.09;4991783;28;20038;-75
2023/10/28 07:31:45;;;;;;;7.95;3.20;;;;;;;19.83;51.41;94332.53;5025186;28;20404;-75
2023/10/28 07:34:10;;;;;;;7.15;3.53;;;;;;;19.96;51.29;94322.88;5008678;28;20064;-75
2023/10/28 07:36:36;;;;;;;5.78;3.35;;;;;;;20.15;50.96;94321.00;5024792;28;20128;-77
2023/10/28 07:39:03;;;;;;;9.25;2.92;;;;;;;20.36;50.15;94318.63;5026549;28;20025;-77
2023/10/28 07:41:29;;;;;;;9.75;4.00;;;;;;;20.62;49.23;94321.03;5007614;28;20034;-77
2023/10/28 07:43:56;;;;;;;12.40;5.40;;;;;;;20.90;48.93;94320.84;5025743;28;20114;-78
2023/10/28 07:46:21;;;;;;;7.97;4.07;;;;;;;21.19;48.47;94324.91;5025590;28;20040;-76
2023/10/28 07:48:46;;;;;;;8.95;3.65;;;;;;;21.62;47.53;94329.88;5007716;28;20017;-77
2023/10/28 07:51:13;;;;;;;6.55;3.33;;;;;;;21.87;46.94;94325.78;5026573;28;20401;-78
2023/10/28 07:53:39;;;;;;;6.35;3.17;;;;;;;22.32;45.98;94325.28;5026673;28;20024;-77
2023/10/28 07:56:04;;;;;;;8.02;3.25;;;;;;;22.76;44.95;94331.53;5046509;28;20033;-82
2023/10/28 07:58:30;;;;;;;5.95;3.08;;;;;;;23.18;44.16;94327.09;5045687;28;20032;-78
2023/10/28 08:00:55;;;;;;;6.53;2.72;;;;;;;23.60;42.30;94330.19;5011664;28;20112;-82
2023/10/28 08:03:21;;;;;;;8.10;2.47;;;;;;;24.05;42.12;94340.63;5034960;28;20047;-80
2023/10/28 08:05:46;;;;;;;5.60;2.65;;;;;;;24.76;40.50;94339.66;5036233;28;20027;-80
2023/10/28 08:08:11;;;;;;;7.25;2.65;;;;;;;25.50;39.35;94342.28;5031717;28;20483;-81
2023/10/28 08:10:40;;;;;;;5.30;2.30;;;;;;;26.47;37.07;94345.59;5028126;28;20037;-80
2023/10/28 08:13:06;;;;;;;5.15;2.13;;;;;;;27.38;35.60;94350.03;5046115;28;20025;-80
2023/10/28 08:15:31;;;;;;;7.97;2.83;;;;;;;28.29;33.33;94352.06;5027034;28;20472;-79
2023/10/28 08:17:57;;;;;;;6.05;2.67;;;;;;;29.12;31.65;94352.38;5011981;28;20462;-79
2023/10/28 08:20:23;;;;;;;6.15;2.28;;;;;;;29.86;31.02;94354.50;5027455;28;20515;-79
2023/10/28 08:22:48;;;;;;;9.05;2.90;;;;;;;30.55;30.17;94355.94;5028254;28;20067;-78
2023/10/28 08:25:16;;;;;;;6.90;2.35;;;;;;;31.19;29.04;94354.78;5027891;28;20139;-78
2023/10/28 08:27:44;;;;;;;15.20;2.92;;;;;;;31.97;28.02;94350.25;5027927;28;20021;-80
2023/10/28 08:30:14;;;;;;;7.85;2.65;;;;;;;32.61;27.56;94344.41;5011707;28;20033;-79
2023/10/28 08:32:39;;;;;;;129.77;9.18;;;;;;;33.33;26.61;94353.19;5010912;28;20033;-84
2023/10/28 08:35:05;;;;;;;12.07;2.75;;;;;;;33.91;24.86;94353.00;5046827;28;20086;-79
2023/10/28 08:37:31;;;;;;;5.70;2.75;;;;;;;34.69;23.76;94353.31;5045504;28;20439;-79
2023/10/28 08:39:57;;;;;;;6.75;2.33;;;;;;;35.34;23.10;94357.56;5045954;28;20052;-80
2023/10/28 08:42:22;;;;;;;6.90;2.55;;;;;;;36.08;22.08;94356.47;5045453;28;20040;-80
2023/10/28 08:44:48;;;;;;;8.13;2.20;;;;;;;36.62;21.56;94361.13;5027859;28;20028;-83
2023/10/28 08:47:15;;;;;;;5.93;1.98;;;;;;;36.84;20.70;94368.16;5027497;28;20549;-80
2023/10/28 08:49:44;;;;;;;4.50;1.67;;;;;;;36.24;21.34;94362.41;5027224;28;20111;-78
2023/10/28 08:52:11;;;;;;;5.45;1.83;;;;;;;36.19;21.52;94355.72;5011442;28;20028;-80
2023/10/28 08:54:38;;;;;;;5.70;1.83;;;;;;;36.54;21.35;94355.69;5027878;28;20048;-83
2023/10/28 08:57:04;;;;;;;5.55;1.75;;;;;;;37.02;20.74;94356.28;5028352;28;20036;-81
2023/10/28 08:59:29;;;;;;;7.10;1.85;;;;;;;36.76;21.07;94358.34;5044973;28;20024;-80
2023/10/28 09:01:57;;;;;;;6.32;2.20;;;;;;;37.52;20.03;94360.56;5045562;28;20423;-85
2023/10/28 09:04:22;;;;;;;4.72;1.80;;;;;;;38.00;19.79;94360.34;5045475;28;20104;-85
2023/10/28 09:06:48;;;;;;;4.82;2.03;;;;;;;37.38;20.00;94354.75;5029057;28;20112;-84
2023/10/28 09:09:17;;;;;;;4.80;2.33;;;;;;;37.54;20.08;94340.59;5050322;28;20025;-89
2023/10/28 09:11:42;;;;;;;5.30;2.22;;;;;;;38.17;19.12;94350.47;5032087;28;20025;-89
2023/10/28 09:14:08;;;;;;;7.93;2.88;;;;;;;38.09;19.42;94349.31;5032514;28;20103;-86
2023/10/28 09:16:36;;;;;;;7.10;2.78;;;;;;;38.87;18.59;94356.94;5031853;28;20029;-90
2023/10/28 09:19:04;;;;;;;9.73;2.80;;;;;;;39.04;18.47;94365.72;5033800;28;20102;-78
2023/10/28 09:21:29;;;;;;;16.10;3.75;;;;;;;37.94;19.82;94353.53;5016084;28;20079;-88
2023/10/28 09:24:00;;;;;;;7.32;2.60;;;;;;;38.68;18.87;94358.13;5032010;28;20048;-84
2023/10/28 09:26:26;;;;;;;7.57;2.10;;;;;;;39.52;18.04;94360.16;5030795;28;20040;-82
2023/10/28 09:28:51;;;;;;;6.07;2.30;;;;;;;38.55;17.50;94359.66;5048013;28;20481;-82
2023/10/28 09:31:24;;;;;;;6.03;2.10;;;;;;;36.87;17.92;94323.94;5014264;28;20020;-81
2023/10/28 09:33:51;;;;;;;7.15;2.08;;;;;;;36.11;19.69;94363.78;5029495;28;20025;-82
2023/10/28 09:36:16;;;;;;;6.00;1.70;;;;;;;36.47;19.40;94344.47;5030416;28;20037;-81
2023/10/28 09:38:45;;;;;;;4.97;1.35;;;;;;;36.27;17.73;94339.00;5029711;28;20103;-82
2023/10/28 09:41:11;;;;;;;2.72;1.10;;;;;;;35.38;18.13;94329.25;5047910;28;20056;-79
2023/10/28 09:43:37;;;;;;;6.40;1.95;;;;;;;35.40;17.71;94342.91;5030029;28;20470;-81
2023/10/28 09:46:05;;;;;;;6.07;2.05;;;;;;;35.84;17.26;94344.22;5029791;28;20056;-83
2023/10/28 09:48:32;;;;;;;4.10;1.98;;;;;;;36.17;17.47;94339.16;5048973;28;20029;-79
2023/10/28 09:50:58;;;;;;;3.95;1.70;;;;;;;37.05;16.65;94349.28;5028694;28;20553;-78
2023/10/28 09:53:30;;;;;;;5.28;1.50;;;;;;;35.99;17.62;94323.75;5013099;28;20036;-77
2023/10/28 09:55:56;;;;;;;6.60;1.65;;;;;;;36.31;16.53;94338.53;5029384;28;20031;-78
2023/10/28 09:58:35;;;;;;;3.58;1.20;;;;;;;37.04;16.18;94345.69;5029420;28;20039;-79
2023/10/28 10:01:08;;;;;;;7.03;3.05;;;;;;;36.54;16.74;94326.31;5012786;28;20102;-76
2023/10/28 10:04:06;;;;;;;5.75;1.70;;;;;;;35.53;17.53;94324.44;5012932;28;20021;-77
2023/10/28 10:06:31;;;;;;;2.90;1.05;;;;;;;35.74;17.04;94324.34;5030349;28;20076;-78
2023/10/28 10:08:57;;;;;;;5.43;1.35;;;;;;;35.33;17.20;94312.47;5029162;28;20045;-76
2023/10/28 10:11:24;;;;;;;4.22;1.30;;;;;;;35.03;17.26;94325.53;5029269;28;20300;-78
2023/10/28 10:13:50;;;;;;;5.10;1.08;;;;;;;35.50;16.70;94309.31;5029145;28;20133;-77
2023/10/28 10:16:39;;;;;;;2.65;0.88;;;;;;;34.00;18.24;94309.47;5013595;28;20503;-83
2023/10/28 10:19:10;;;;;;;3.78;1.20;;;;;;;35.26;17.64;94296.31;5017718;28;20037;-78
2023/10/28 10:21:36;;;;;;;3.78;1.10;;;;;;;35.63;17.23;94325.84;5028282;28;20040;-79
2023/10/28 10:24:05;;;;;;;4.45;1.58;;;;;;;35.11;17.39;94306.09;5029555;28;20033;-77
2023/10/28 10:26:33;;;;;;;3.72;1.20;;;;;;;35.32;17.22;94297.44;5012585;28;20029;-78
2023/10/28 10:28:59;;;;;;;4.20;1.80;;;;;;;34.59;18.14;94296.31;5012474;28;20127;-81
2023/10/28 10:31:33;;;;;;;4.30;1.65;;;;;;;35.19;17.88;94309.44;5011973;28;20033;-79
2023/10/28 10:34:03;;;;;;;6.32;1.83;;;;;;;35.61;17.51;94305.72;5028989;28;20025;-79
2023/10/28 10:36:30;;;;;;;6.13;1.15;;;;;;;35.85;17.12;94302.84;5025996;28;20065;-80
2023/10/28 10:39:11;;;;;;;4.55;1.27;;;;;;;35.68;16.75;94286.06;5008511;28;20037;-79
2023/10/28 10:41:37;;;;;;;3.83;0.90;;;;;;;35.35;16.63;94290.47;5009145;28;20025;-82
2023/10/28 10:44:23;;;;;;;4.00;0.82;;;;;;;34.53;17.02;94283.78;5025486;28;20025;-81
2023/10/28 10:46:49;;;;;;;4.28;0.82;;;;;;;34.62;16.82;94320.03;5026664;28;20239;-82
2023/10/28 10:49:15;;;;;;;7.43;1.10;;;;;;;34.12;17.66;94291.69;5027494;28;20120;-82
2023/10/28 10:51:41;;;;;;;4.00;1.00;;;;;;;34.72;17.34;94291.41;5024638;28;20037;-80
2023/10/28 10:54:06;;;;;;;5.47;1.30;;;;;;;35.53;16.73;94288.03;5025962;28;20029;-80
2023/10/28 10:56:32;;;;;;;3.97;0.88;;;;;;;36.17;15.90;94301.22;5024773;28;20125;-80
2023/10/28 10:58:58;;;;;;;3.92;0.88;;;;;;;34.97;15.02;94285.19;5025878;28;20018;-84
2023/10/28 11:01:25;;;;;;;3.13;1.10;;;;;;;34.12;15.95;94292.44;5026149;28;20444;-83
2023/10/28 11:03:51;;;;;;;4.30;1.10;;;;;;;32.98;17.59;94285.25;5026801;28;20029;-83
2023/10/28 11:06:16;;;;;;;4.68;0.98;;;;;;;34.03;16.01;94285.44;5026266;28;20026;-86
2023/10/28 11:08:41;;;;;;;3.30;0.98;;;;;;;34.85;15.44;94288.72;5025851;28;20559;-86
2023/10/28 11:11:07;;;;;;;2.83;0.80;;;;;;;34.96;16.48;94289.41;5032833;28;20036;-82
2023/10/28 11:13:32;;;;;;;4.68;1.40;;;;;;;35.19;17.59;94294.44;5030487;28;20089;-80
2023/10/28 11:15:59;;;;;;;5.43;1.25;;;;;;;34.73;17.67;94287.94;5037644;28;20029;-78
2023/10/28 11:18:25;;;;;;;11.07;1.73;;;;;;;33.95;18.09;94282.06;5034342;28;20055;-82
2023/10/28 11:20:52;;;;;;;4.78;1.35;;;;;;;34.26;17.41;94286.94;5027572;28;20040;-78
2023/10/28 11:23:17;;;;;;;4.05;1.02;;;;;;;33.90;16.66;94305.91;5028165;28;20031;-84
2023/10/28 11:25:47;;;;;;;2.50;0.93;;;;;;;32.23;18.04;94277.63;5025889;28;20022;-86
2023/10/28 11:28:12;;;;;;;2.53;0.80;;;;;;;33.08;17.27;94282.34;5026317;28;20765;-81